sensor_id;sensor_type;location;lat;lon;timestamp;P1;durP1;ratioP1;P2;durP2;ratioP2
44214;SDS011;29884;47.450;19.124;2023-07-31T00:00:49;1.75;;;1.00;;
44214;SDS011;29884;47.450;19.124;2023-07-31T00:03:15;1.27;;;0.82;;
44214;SDS011;29884;47.450;19.124;2023-07-31T00:05:41;3.05;;;0.95;;
44214;SDS011;29884;47.450;19.124;2023-07-31T00:08:07;2.33;;;1.10;;
44214;SDS011;29884;47.450;19.124;2023-07-31T00:10:32;1.30;;;1.10;;
44214;SDS011;29884;47.450;19.124;2023-07-31T00:12:58;1.40;;;1.05;;
44214;SDS011;29884;47.450;19.124;2023-07-31T00:15:24;1.20;;;1.00;;
44214;SDS011;29884;47.450;19.124;2023-07-31T00:17:50;2.85;;;0.90;;
44214;SDS011;29884;47.450;19.124;2023-07-31T00:20:15;4.05;;;1.02;;
44214;SDS011;29884;47.450;19.124;2023-07-31T00:22:41;1.70;;;0.95;;
44214;SDS011;29884;47.450;19.124;2023-07-31T00:25:07;1.30;;;1.10;;
44214;SDS011;29884;47.450;19.124;2023-07-31T00:27:33;1.48;;;0.90;;
44214;SDS011;29884;47.450;19.124;2023-07-31T00:29:59;1.48;;;1.00;;
44214;SDS011;29884;47.450;19.124;2023-07-31T00:32:24;1.50;;;1.15;;
44214;SDS011;29884;47.450;19.124;2023-07-31T00:34:50;1.48;;;1.00;;
44214;SDS011;29884;47.450;19.124;2023-07-31T00:37:16;2.47;;;0.93;;
44214;SDS011;29884;47.450;19.124;2023-07-31T00:39:41;1.83;;;1.00;;
44214;SDS011;29884;47.450;19.124;2023-07-31T00:42:07;1.08;;;0.80;;
44214;SDS011;29884;47.450;19.124;2023-07-31T00:44:33;2.00;;;0.90;;
44214;SDS011;29884;47.450;19.124;2023-07-31T00:46:58;1.88;;;0.93;;
44214;SDS011;29884;47.450;19.124;2023-07-31T00:49:25;1.40;;;0.98;;
44214;SDS011;29884;47.450;19.124;2023-07-31T00:51:52;1.77;;;1.00;;
44214;SDS011;29884;47.450;19.124;2023-07-31T00:54:18;1.27;;;0.95;;
44214;SDS011;29884;47.450;19.124;2023-07-31T00:56:47;1.50;;;1.00;;
44214;SDS011;29884;47.450;19.124;2023-07-31T00:59:13;2.67;;;0.95;;
44214;SDS011;29884;47.450;19.124;2023-07-31T01:01:39;1.60;;;1.20;;
44214;SDS011;29884;47.450;19.124;2023-07-31T01:04:05;1.35;;;1.00;;
44214;SDS011;29884;47.450;19.124;2023-07-31T01:11:44;2.58;;;1.00;;
44214;SDS011;29884;47.450;19.124;2023-07-31T01:14:15;2.58;;;0.98;;
44214;SDS011;29884;47.450;19.124;2023-07-31T01:16:41;1.25;;;0.88;;
44214;SDS011;29884;47.450;19.124;2023-07-31T01:19:06;2.15;;;1.00;;
44214;SDS011;29884;47.450;19.124;2023-07-31T01:26:58;1.55;;;0.90;;
44214;SDS011;29884;47.450;19.124;2023-07-31T01:29:43;1.38;;;0.90;;
44214;SDS011;29884;47.450;19.124;2023-07-31T01:32:17;1.08;;;0.80;;
44214;SDS011;29884;47.450;19.124;2023-07-31T01:34:44;3.88;;;0.90;;
44214;SDS011;29884;47.450;19.124;2023-07-31T01:37:12;1.40;;;0.93;;
44214;SDS011;29884;47.450;19.124;2023-07-31T01:39:37;1.38;;;0.90;;
44214;SDS011;29884;47.450;19.124;2023-07-31T01:42:03;1.45;;;1.00;;
44214;SDS011;29884;47.450;19.124;2023-07-31T01:44:29;2.97;;;0.90;;
44214;SDS011;29884;47.450;19.124;2023-07-31T01:46:55;2.75;;;1.10;;
44214;SDS011;29884;47.450;19.124;2023-07-31T01:49:21;3.03;;;1.20;;
44214;SDS011;29884;47.450;19.124;2023-07-31T01:51:46;1.67;;;1.00;;
44214;SDS011;29884;47.450;19.124;2023-07-31T01:54:12;1.42;;;1.08;;
44214;SDS011;29884;47.450;19.124;2023-07-31T01:56:37;3.00;;;1.10;;
44214;SDS011;29884;47.450;19.124;2023-07-31T01:59:03;1.50;;;0.95;;
44214;SDS011;29884;47.450;19.124;2023-07-31T02:01:29;2.25;;;1.10;;
44214;SDS011;29884;47.450;19.124;2023-07-31T02:03:55;1.38;;;0.90;;
44214;SDS011;29884;47.450;19.124;2023-07-31T02:06:20;1.10;;;0.90;;
44214;SDS011;29884;47.450;19.124;2023-07-31T02:08:47;3.63;;;0.95;;
44214;SDS011;29884;47.450;19.124;2023-07-31T02:11:14;1.20;;;0.90;;
44214;SDS011;29884;47.450;19.124;2023-07-31T02:13:39;1.85;;;1.00;;
44214;SDS011;29884;47.450;19.124;2023-07-31T02:16:05;2.03;;;0.98;;
44214;SDS011;29884;47.450;19.124;2023-07-31T02:18:30;1.75;;;1.13;;
44214;SDS011;29884;47.450;19.124;2023-07-31T02:20:56;2.15;;;1.00;;
44214;SDS011;29884;47.450;19.124;2023-07-31T02:23:22;1.63;;;0.90;;
44214;SDS011;29884;47.450;19.124;2023-07-31T02:25:48;1.60;;;1.00;;
44214;SDS011;29884;47.450;19.124;2023-07-31T02:28:13;1.13;;;0.82;;
44214;SDS011;29884;47.450;19.124;2023-07-31T02:30:39;2.42;;;1.00;;
44214;SDS011;29884;47.450;19.124;2023-07-31T02:33:05;1.48;;;0.80;;
44214;SDS011;29884;47.450;19.124;2023-07-31T02:35:33;3.15;;;1.00;;
44214;SDS011;29884;47.450;19.124;2023-07-31T02:38:06;1.08;;;0.90;;
44214;SDS011;29884;47.450;19.124;2023-07-31T02:40:31;1.77;;;1.02;;
44214;SDS011;29884;47.450;19.124;2023-07-31T02:42:57;1.30;;;0.90;;
44214;SDS011;29884;47.450;19.124;2023-07-31T02:45:23;1.63;;;1.00;;
44214;SDS011;29884;47.450;19.124;2023-07-31T02:47:48;2.83;;;1.77;;
44214;SDS011;29884;47.450;19.124;2023-07-31T02:50:14;2.65;;;1.60;;
44214;SDS011;29884;47.450;19.124;2023-07-31T02:52:40;3.33;;;2.00;;
44214;SDS011;29884;47.450;19.124;2023-07-31T02:55:06;6.05;;;2.35;;
44214;SDS011;29884;47.450;19.124;2023-07-31T02:57:32;3.40;;;1.92;;
44214;SDS011;29884;47.450;19.124;2023-07-31T02:59:57;2.83;;;1.88;;
44214;SDS011;29884;47.450;19.124;2023-07-31T03:02:23;5.60;;;2.20;;
44214;SDS011;29884;47.450;19.124;2023-07-31T03:04:49;2.17;;;1.38;;
44214;SDS011;29884;47.450;19.124;2023-07-31T03:07:14;3.15;;;1.75;;
44214;SDS011;29884;47.450;19.124;2023-07-31T03:09:40;3.58;;;2.00;;
44214;SDS011;29884;47.450;19.124;2023-07-31T03:12:06;3.70;;;2.28;;
44214;SDS011;29884;47.450;19.124;2023-07-31T03:14:32;6.63;;;2.95;;
44214;SDS011;29884;47.450;19.124;2023-07-31T03:16:59;5.53;;;2.60;;
44214;SDS011;29884;47.450;19.124;2023-07-31T03:19:24;4.22;;;2.78;;
44214;SDS011;29884;47.450;19.124;2023-07-31T03:21:50;3.67;;;2.35;;
44214;SDS011;29884;47.450;19.124;2023-07-31T03:24:16;5.43;;;3.00;;
44214;SDS011;29884;47.450;19.124;2023-07-31T03:26:41;3.40;;;2.10;;
44214;SDS011;29884;47.450;19.124;2023-07-31T03:29:08;5.75;;;3.30;;
44214;SDS011;29884;47.450;19.124;2023-07-31T03:31:33;3.72;;;2.30;;
44214;SDS011;29884;47.450;19.124;2023-07-31T03:33:59;4.70;;;2.90;;
44214;SDS011;29884;47.450;19.124;2023-07-31T03:36:24;3.53;;;2.13;;
44214;SDS011;29884;47.450;19.124;2023-07-31T03:38:51;3.80;;;1.80;;
44214;SDS011;29884;47.450;19.124;2023-07-31T03:41:17;3.28;;;1.80;;
44214;SDS011;29884;47.450;19.124;2023-07-31T03:43:43;3.25;;;1.70;;
44214;SDS011;29884;47.450;19.124;2023-07-31T03:46:08;3.78;;;2.28;;
44214;SDS011;29884;47.450;19.124;2023-07-31T03:48:34;5.72;;;2.40;;
44214;SDS011;29884;47.450;19.124;2023-07-31T03:51:00;10.70;;;4.68;;
44214;SDS011;29884;47.450;19.124;2023-07-31T03:53:25;10.68;;;3.63;;
44214;SDS011;29884;47.450;19.124;2023-07-31T03:55:51;7.10;;;4.50;;
44214;SDS011;29884;47.450;19.124;2023-07-31T03:58:17;8.45;;;3.83;;
44214;SDS011;29884;47.450;19.124;2023-07-31T04:00:42;4.15;;;2.78;;
44214;SDS011;29884;47.450;19.124;2023-07-31T04:03:08;7.70;;;3.45;;
44214;SDS011;29884;47.450;19.124;2023-07-31T04:05:37;5.60;;;3.70;;
44214;SDS011;29884;47.450;19.124;2023-07-31T04:08:03;6.45;;;3.80;;
44214;SDS011;29884;47.450;19.124;2023-07-31T04:10:29;3.05;;;2.10;;
44214;SDS011;29884;47.450;19.124;2023-07-31T04:12:56;4.97;;;2.53;;
44214;SDS011;29884;47.450;19.124;2023-07-31T04:15:21;2.90;;;2.20;;
44214;SDS011;29884;47.450;19.124;2023-07-31T04:17:47;2.40;;;1.42;;
44214;SDS011;29884;47.450;19.124;2023-07-31T04:20:13;2.58;;;1.10;;
44214;SDS011;29884;47.450;19.124;2023-07-31T04:22:39;2.90;;;1.40;;
44214;SDS011;29884;47.450;19.124;2023-07-31T04:25:04;2.50;;;1.58;;
44214;SDS011;29884;47.450;19.124;2023-07-31T04:27:30;3.42;;;2.50;;
44214;SDS011;29884;47.450;19.124;2023-07-31T04:29:56;4.60;;;1.83;;
44214;SDS011;29884;47.450;19.124;2023-07-31T04:32:22;3.30;;;1.40;;
44214;SDS011;29884;47.450;19.124;2023-07-31T04:34:47;5.15;;;1.48;;
44214;SDS011;29884;47.450;19.124;2023-07-31T04:37:13;2.90;;;1.50;;
44214;SDS011;29884;47.450;19.124;2023-07-31T04:39:39;3.30;;;1.30;;
44214;SDS011;29884;47.450;19.124;2023-07-31T04:42:05;4.75;;;1.20;;
44214;SDS011;29884;47.450;19.124;2023-07-31T04:44:30;4.22;;;1.20;;
44214;SDS011;29884;47.450;19.124;2023-07-31T04:46:56;3.10;;;0.90;;
44214;SDS011;29884;47.450;19.124;2023-07-31T04:49:22;1.75;;;0.70;;
44214;SDS011;29884;47.450;19.124;2023-07-31T04:51:48;2.78;;;0.70;;
44214;SDS011;29884;47.450;19.124;2023-07-31T04:54:13;2.88;;;0.80;;
44214;SDS011;29884;47.450;19.124;2023-07-31T04:56:40;1.88;;;0.60;;
44214;SDS011;29884;47.450;19.124;2023-07-31T04:59:07;1.58;;;0.60;;
44214;SDS011;29884;47.450;19.124;2023-07-31T05:01:33;1.25;;;0.50;;
44214;SDS011;29884;47.450;19.124;2023-07-31T05:03:58;1.30;;;0.57;;
44214;SDS011;29884;47.450;19.124;2023-07-31T05:06:24;2.10;;;0.50;;
44214;SDS011;29884;47.450;19.124;2023-07-31T05:08:50;0.90;;;0.60;;
44214;SDS011;29884;47.450;19.124;2023-07-31T05:11:15;1.27;;;0.50;;
44214;SDS011;29884;47.450;19.124;2023-07-31T05:13:41;2.45;;;0.60;;
44214;SDS011;29884;47.450;19.124;2023-07-31T05:16:07;0.85;;;0.60;;
44214;SDS011;29884;47.450;19.124;2023-07-31T05:18:32;1.88;;;0.60;;
44214;SDS011;29884;47.450;19.124;2023-07-31T05:20:58;2.47;;;0.60;;
44214;SDS011;29884;47.450;19.124;2023-07-31T05:23:24;1.33;;;0.60;;
44214;SDS011;29884;47.450;19.124;2023-07-31T05:25:50;2.70;;;0.60;;
44214;SDS011;29884;47.450;19.124;2023-07-31T05:28:15;1.83;;;0.70;;
44214;SDS011;29884;47.450;19.124;2023-07-31T05:30:41;1.83;;;0.70;;
44214;SDS011;29884;47.450;19.124;2023-07-31T05:33:07;2.00;;;0.70;;
44214;SDS011;29884;47.450;19.124;2023-07-31T05:35:33;1.95;;;0.60;;
44214;SDS011;29884;47.450;19.124;2023-07-31T05:37:58;1.73;;;0.57;;
44214;SDS011;29884;47.450;19.124;2023-07-31T05:40:24;1.33;;;0.70;;
44214;SDS011;29884;47.450;19.124;2023-07-31T05:42:50;3.58;;;0.70;;
44214;SDS011;29884;47.450;19.124;2023-07-31T05:45:15;2.63;;;0.80;;
44214;SDS011;29884;47.450;19.124;2023-07-31T05:47:41;2.45;;;0.90;;
44214;SDS011;29884;47.450;19.124;2023-07-31T05:50:07;1.98;;;0.70;;
44214;SDS011;29884;47.450;19.124;2023-07-31T05:52:33;4.35;;;1.00;;
44214;SDS011;29884;47.450;19.124;2023-07-31T05:54:58;3.40;;;0.80;;
44214;SDS011;29884;47.450;19.124;2023-07-31T05:57:24;1.95;;;0.50;;
44214;SDS011;29884;47.450;19.124;2023-07-31T05:59:50;2.35;;;0.52;;
44214;SDS011;29884;47.450;19.124;2023-07-31T06:02:15;3.15;;;0.50;;
44214;SDS011;29884;47.450;19.124;2023-07-31T06:04:41;2.10;;;0.60;;
44214;SDS011;29884;47.450;19.124;2023-07-31T06:07:07;3.60;;;0.60;;
44214;SDS011;29884;47.450;19.124;2023-07-31T06:09:32;4.60;;;0.90;;
44214;SDS011;29884;47.450;19.124;2023-07-31T06:11:58;2.40;;;1.00;;
44214;SDS011;29884;47.450;19.124;2023-07-31T06:14:24;2.63;;;0.80;;
44214;SDS011;29884;47.450;19.124;2023-07-31T06:16:49;3.78;;;0.80;;
44214;SDS011;29884;47.450;19.124;2023-07-31T06:19:15;2.05;;;0.70;;
44214;SDS011;29884;47.450;19.124;2023-07-31T06:21:41;3.05;;;0.60;;
44214;SDS011;29884;47.450;19.124;2023-07-31T06:24:08;5.20;;;0.50;;
44214;SDS011;29884;47.450;19.124;2023-07-31T06:26:34;0.93;;;0.50;;
44214;SDS011;29884;47.450;19.124;2023-07-31T06:29:00;2.45;;;0.65;;
44214;SDS011;29884;47.450;19.124;2023-07-31T06:31:25;3.58;;;0.50;;
44214;SDS011;29884;47.450;19.124;2023-07-31T06:33:51;2.72;;;0.50;;
44214;SDS011;29884;47.450;19.124;2023-07-31T06:36:17;2.20;;;0.50;;
44214;SDS011;29884;47.450;19.124;2023-07-31T06:38:43;2.88;;;0.50;;
44214;SDS011;29884;47.450;19.124;2023-07-31T06:41:09;0.85;;;0.45;;
44214;SDS011;29884;47.450;19.124;2023-07-31T06:43:35;4.15;;;0.52;;
44214;SDS011;29884;47.450;19.124;2023-07-31T06:46:07;0.80;;;0.40;;
44214;SDS011;29884;47.450;19.124;2023-07-31T06:48:34;1.30;;;0.40;;
44214;SDS011;29884;47.450;19.124;2023-07-31T06:51:02;2.33;;;0.40;;
44214;SDS011;29884;47.450;19.124;2023-07-31T06:53:28;4.93;;;0.57;;
44214;SDS011;29884;47.450;19.124;2023-07-31T06:55:54;3.63;;;0.40;;
44214;SDS011;29884;47.450;19.124;2023-07-31T06:58:20;1.90;;;0.50;;
44214;SDS011;29884;47.450;19.124;2023-07-31T07:00:46;3.25;;;0.50;;
44214;SDS011;29884;47.450;19.124;2023-07-31T07:03:14;2.30;;;0.60;;
44214;SDS011;29884;47.450;19.124;2023-07-31T07:05:39;1.40;;;0.60;;
44214;SDS011;29884;47.450;19.124;2023-07-31T07:08:06;5.60;;;0.90;;
44214;SDS011;29884;47.450;19.124;2023-07-31T07:10:31;4.32;;;0.80;;
44214;SDS011;29884;47.450;19.124;2023-07-31T07:12:57;3.42;;;0.60;;
44214;SDS011;29884;47.450;19.124;2023-07-31T07:15:23;1.63;;;0.57;;
44214;SDS011;29884;47.450;19.124;2023-07-31T07:17:48;3.88;;;0.65;;
44214;SDS011;29884;47.450;19.124;2023-07-31T07:20:14;3.28;;;0.55;;
44214;SDS011;29884;47.450;19.124;2023-07-31T07:22:40;2.30;;;0.55;;
44214;SDS011;29884;47.450;19.124;2023-07-31T07:25:08;6.30;;;0.60;;
44214;SDS011;29884;47.450;19.124;2023-07-31T07:27:34;1.92;;;0.68;;
44214;SDS011;29884;47.450;19.124;2023-07-31T07:30:00;2.28;;;0.60;;
44214;SDS011;29884;47.450;19.124;2023-07-31T07:32:26;2.33;;;0.50;;
44214;SDS011;29884;47.450;19.124;2023-07-31T07:34:53;4.15;;;0.52;;
44214;SDS011;29884;47.450;19.124;2023-07-31T07:37:20;5.63;;;0.68;;
44214;SDS011;29884;47.450;19.124;2023-07-31T07:39:46;6.95;;;0.60;;
44214;SDS011;29884;47.450;19.124;2023-07-31T07:42:11;4.75;;;0.60;;
44214;SDS011;29884;47.450;19.124;2023-07-31T07:44:37;2.55;;;0.60;;
44214;SDS011;29884;47.450;19.124;2023-07-31T07:47:03;1.77;;;0.60;;
44214;SDS011;29884;47.450;19.124;2023-07-31T07:49:31;3.85;;;0.82;;
44214;SDS011;29884;47.450;19.124;2023-07-31T07:51:57;4.97;;;0.60;;
44214;SDS011;29884;47.450;19.124;2023-07-31T07:54:23;3.53;;;0.60;;
44214;SDS011;29884;47.450;19.124;2023-07-31T07:56:48;4.22;;;0.60;;
44214;SDS011;29884;47.450;19.124;2023-07-31T07:59:14;3.53;;;0.60;;
44214;SDS011;29884;47.450;19.124;2023-07-31T08:01:40;1.58;;;0.50;;
44214;SDS011;29884;47.450;19.124;2023-07-31T08:04:06;2.95;;;0.60;;
44214;SDS011;29884;47.450;19.124;2023-07-31T08:06:32;1.30;;;0.50;;
44214;SDS011;29884;47.450;19.124;2023-07-31T08:08:57;1.27;;;0.52;;
44214;SDS011;29884;47.450;19.124;2023-07-31T08:11:24;1.17;;;0.50;;
44214;SDS011;29884;47.450;19.124;2023-07-31T08:13:50;2.28;;;0.50;;
44214;SDS011;29884;47.450;19.124;2023-07-31T08:16:16;4.60;;;0.52;;
44214;SDS011;29884;47.450;19.124;2023-07-31T08:18:41;2.90;;;0.60;;
44214;SDS011;29884;47.450;19.124;2023-07-31T08:21:10;13.60;;;0.80;;
44214;SDS011;29884;47.450;19.124;2023-07-31T08:23:35;3.53;;;0.60;;
44214;SDS011;29884;47.450;19.124;2023-07-31T08:26:01;3.22;;;0.50;;
44214;SDS011;29884;47.450;19.124;2023-07-31T08:28:27;1.55;;;0.45;;
44214;SDS011;29884;47.450;19.124;2023-07-31T08:30:52;4.60;;;0.52;;
44214;SDS011;29884;47.450;19.124;2023-07-31T08:33:18;9.02;;;0.60;;
44214;SDS011;29884;47.450;19.124;2023-07-31T08:35:44;4.20;;;0.63;;
44214;SDS011;29884;47.450;19.124;2023-07-31T08:38:11;2.55;;;0.50;;
44214;SDS011;29884;47.450;19.124;2023-07-31T08:40:37;0.95;;;0.40;;
44214;SDS011;29884;47.450;19.124;2023-07-31T08:43:03;2.78;;;0.60;;
44214;SDS011;29884;47.450;19.124;2023-07-31T08:45:29;1.20;;;0.45;;
44214;SDS011;29884;47.450;19.124;2023-07-31T08:47:56;2.47;;;0.55;;
44214;SDS011;29884;47.450;19.124;2023-07-31T08:50:25;10.02;;;0.70;;
44214;SDS011;29884;47.450;19.124;2023-07-31T08:52:51;3.65;;;0.50;;
44214;SDS011;29884;47.450;19.124;2023-07-31T08:55:17;3.13;;;0.60;;
44214;SDS011;29884;47.450;19.124;2023-07-31T08:57:48;4.78;;;0.50;;
44214;SDS011;29884;47.450;19.124;2023-07-31T09:00:17;2.38;;;0.50;;
44214;SDS011;29884;47.450;19.124;2023-07-31T09:05:16;2.50;;;0.40;;
44214;SDS011;29884;47.450;19.124;2023-07-31T09:07:43;1.38;;;0.60;;
44214;SDS011;29884;47.450;19.124;2023-07-31T09:10:12;1.42;;;0.57;;
44214;SDS011;29884;47.450;19.124;2023-07-31T09:12:38;3.90;;;0.65;;
44214;SDS011;29884;47.450;19.124;2023-07-31T09:15:04;2.25;;;0.40;;
44214;SDS011;29884;47.450;19.124;2023-07-31T09:17:34;11.30;;;1.15;;
44214;SDS011;29884;47.450;19.124;2023-07-31T09:23:06;3.30;;;0.50;;
44214;SDS011;29884;47.450;19.124;2023-07-31T09:25:36;1.38;;;0.50;;
44214;SDS011;29884;47.450;19.124;2023-07-31T09:28:03;16.85;;;0.80;;
44214;SDS011;29884;47.450;19.124;2023-07-31T09:30:44;2.63;;;0.50;;
44214;SDS011;29884;47.450;19.124;2023-07-31T09:33:14;4.55;;;0.47;;
44214;SDS011;29884;47.450;19.124;2023-07-31T09:35:40;1.73;;;0.40;;
44214;SDS011;29884;47.450;19.124;2023-07-31T09:38:07;2.08;;;0.50;;
44214;SDS011;29884;47.450;19.124;2023-07-31T09:40:35;4.10;;;0.45;;
44214;SDS011;29884;47.450;19.124;2023-07-31T09:43:06;1.48;;;0.40;;
44214;SDS011;29884;47.450;19.124;2023-07-31T09:45:35;1.60;;;0.43;;
44214;SDS011;29884;47.450;19.124;2023-07-31T09:48:02;3.55;;;0.65;;
44214;SDS011;29884;47.450;19.124;2023-07-31T09:50:29;3.05;;;0.60;;
44214;SDS011;29884;47.450;19.124;2023-07-31T09:52:56;1.88;;;0.55;;
44214;SDS011;29884;47.450;19.124;2023-07-31T09:55:21;3.80;;;1.05;;
44214;SDS011;29884;47.450;19.124;2023-07-31T09:57:48;5.68;;;0.60;;
44214;SDS011;29884;47.450;19.124;2023-07-31T10:00:17;6.88;;;0.70;;
44214;SDS011;29884;47.450;19.124;2023-07-31T10:02:47;4.70;;;0.70;;
44214;SDS011;29884;47.450;19.124;2023-07-31T10:05:14;3.15;;;0.50;;
44214;SDS011;29884;47.450;19.124;2023-07-31T10:07:45;2.45;;;0.40;;
44214;SDS011;29884;47.450;19.124;2023-07-31T10:10:20;6.03;;;0.50;;
44214;SDS011;29884;47.450;19.124;2023-07-31T10:12:50;2.05;;;0.50;;
44214;SDS011;29884;47.450;19.124;2023-07-31T10:15:18;6.03;;;0.65;;
44214;SDS011;29884;47.450;19.124;2023-07-31T10:17:45;4.75;;;0.60;;
44214;SDS011;29884;47.450;19.124;2023-07-31T10:20:13;4.25;;;0.60;;
44214;SDS011;29884;47.450;19.124;2023-07-31T10:22:41;1.65;;;0.50;;
44214;SDS011;29884;47.450;19.124;2023-07-31T10:25:12;1.60;;;0.40;;
44214;SDS011;29884;47.450;19.124;2023-07-31T10:27:38;3.97;;;0.60;;
44214;SDS011;29884;47.450;19.124;2023-07-31T10:30:06;2.22;;;0.40;;
44214;SDS011;29884;47.450;19.124;2023-07-31T10:32:34;3.40;;;0.60;;
44214;SDS011;29884;47.450;19.124;2023-07-31T10:35:01;4.80;;;0.50;;
44214;SDS011;29884;47.450;19.124;2023-07-31T10:37:29;4.40;;;0.60;;
44214;SDS011;29884;47.450;19.124;2023-07-31T10:40:00;1.35;;;0.50;;
44214;SDS011;29884;47.450;19.124;2023-07-31T10:42:30;1.88;;;0.40;;
44214;SDS011;29884;47.450;19.124;2023-07-31T10:44:57;1.77;;;0.50;;
44214;SDS011;29884;47.450;19.124;2023-07-31T10:47:24;2.05;;;0.40;;
44214;SDS011;29884;47.450;19.124;2023-07-31T10:49:50;2.55;;;0.40;;
44214;SDS011;29884;47.450;19.124;2023-07-31T10:52:19;2.58;;;0.40;;
44214;SDS011;29884;47.450;19.124;2023-07-31T10:55:13;3.20;;;0.50;;
44214;SDS011;29884;47.450;19.124;2023-07-31T10:57:39;2.95;;;0.60;;
44214;SDS011;29884;47.450;19.124;2023-07-31T11:00:17;1.33;;;0.50;;
44214;SDS011;29884;47.450;19.124;2023-07-31T11:02:55;12.55;;;0.70;;
44214;SDS011;29884;47.450;19.124;2023-07-31T11:08:18;3.50;;;0.60;;
44214;SDS011;29884;47.450;19.124;2023-07-31T11:10:50;1.67;;;0.50;;
44214;SDS011;29884;47.450;19.124;2023-07-31T11:13:34;1.55;;;0.50;;
44214;SDS011;29884;47.450;19.124;2023-07-31T11:16:15;3.15;;;0.60;;
44214;SDS011;29884;47.450;19.124;2023-07-31T11:18:42;2.10;;;0.50;;
44214;SDS011;29884;47.450;19.124;2023-07-31T11:21:13;2.92;;;0.60;;
44214;SDS011;29884;47.450;19.124;2023-07-31T11:23:40;2.42;;;0.50;;
44214;SDS011;29884;47.450;19.124;2023-07-31T11:26:10;5.70;;;0.50;;
44214;SDS011;29884;47.450;19.124;2023-07-31T11:28:36;2.55;;;0.50;;
44214;SDS011;29884;47.450;19.124;2023-07-31T11:31:03;5.05;;;0.63;;
44214;SDS011;29884;47.450;19.124;2023-07-31T11:33:29;5.10;;;0.57;;
44214;SDS011;29884;47.450;19.124;2023-07-31T11:35:55;15.27;;;0.93;;
44214;SDS011;29884;47.450;19.124;2023-07-31T11:38:41;3.83;;;0.70;;
44214;SDS011;29884;47.450;19.124;2023-07-31T11:41:06;6.07;;;0.80;;
44214;SDS011;29884;47.450;19.124;2023-07-31T11:43:33;2.20;;;0.50;;
44214;SDS011;29884;47.450;19.124;2023-07-31T11:46:01;2.17;;;0.65;;
44214;SDS011;29884;47.450;19.124;2023-07-31T11:48:33;1.77;;;0.52;;
44214;SDS011;29884;47.450;19.124;2023-07-31T11:51:02;3.72;;;0.50;;
44214;SDS011;29884;47.450;19.124;2023-07-31T11:56:18;4.55;;;0.47;;
44214;SDS011;29884;47.450;19.124;2023-07-31T11:58:46;4.18;;;0.60;;
44214;SDS011;29884;47.450;19.124;2023-07-31T12:01:13;9.13;;;0.60;;
44214;SDS011;29884;47.450;19.124;2023-07-31T12:03:40;6.50;;;0.60;;
44214;SDS011;29884;47.450;19.124;2023-07-31T12:06:07;2.22;;;0.45;;
44214;SDS011;29884;47.450;19.124;2023-07-31T12:08:33;3.90;;;0.52;;
44214;SDS011;29884;47.450;19.124;2023-07-31T12:11:02;3.80;;;0.75;;
44214;SDS011;29884;47.450;19.124;2023-07-31T12:13:30;3.13;;;0.60;;
44214;SDS011;29884;47.450;19.124;2023-07-31T12:15:59;3.17;;;0.60;;
44214;SDS011;29884;47.450;19.124;2023-07-31T12:18:30;4.57;;;0.50;;
44214;SDS011;29884;47.450;19.124;2023-07-31T12:21:00;1.23;;;0.50;;
44214;SDS011;29884;47.450;19.124;2023-07-31T12:23:29;1.48;;;0.40;;
44214;SDS011;29884;47.450;19.124;2023-07-31T12:26:15;1.17;;;0.40;;
44214;SDS011;29884;47.450;19.124;2023-07-31T12:28:48;2.22;;;0.45;;
44214;SDS011;29884;47.450;19.124;2023-07-31T12:31:15;1.63;;;0.47;;
44214;SDS011;29884;47.450;19.124;2023-07-31T12:33:43;2.97;;;0.70;;
44214;SDS011;29884;47.450;19.124;2023-07-31T12:36:11;9.13;;;0.60;;
44214;SDS011;29884;47.450;19.124;2023-07-31T12:38:38;4.13;;;0.40;;
44214;SDS011;29884;47.450;19.124;2023-07-31T12:41:04;2.08;;;0.40;;
44214;SDS011;29884;47.450;19.124;2023-07-31T12:43:34;5.78;;;0.60;;
44214;SDS011;29884;47.450;19.124;2023-07-31T12:46:00;2.50;;;0.40;;
44214;SDS011;29884;47.450;19.124;2023-07-31T12:48:26;4.93;;;0.50;;
44214;SDS011;29884;47.450;19.124;2023-07-31T12:50:52;2.50;;;0.32;;
44214;SDS011;29884;47.450;19.124;2023-07-31T12:53:18;2.00;;;0.50;;
44214;SDS011;29884;47.450;19.124;2023-07-31T12:55:43;3.13;;;0.40;;
44214;SDS011;29884;47.450;19.124;2023-07-31T12:58:09;1.35;;;0.40;;
44214;SDS011;29884;47.450;19.124;2023-07-31T13:00:35;0.70;;;0.30;;
44214;SDS011;29884;47.450;19.124;2023-07-31T13:03:01;1.90;;;0.50;;
44214;SDS011;29884;47.450;19.124;2023-07-31T13:05:28;1.25;;;0.50;;
44214;SDS011;29884;47.450;19.124;2023-07-31T13:07:54;2.50;;;0.50;;
44214;SDS011;29884;47.450;19.124;2023-07-31T13:10:20;1.88;;;0.45;;
44214;SDS011;29884;47.450;19.124;2023-07-31T13:12:47;1.02;;;0.47;;
44214;SDS011;29884;47.450;19.124;2023-07-31T13:15:13;3.88;;;0.50;;
44214;SDS011;29884;47.450;19.124;2023-07-31T13:17:39;2.10;;;0.43;;
44214;SDS011;29884;47.450;19.124;2023-07-31T13:20:20;4.88;;;0.40;;
44214;SDS011;29884;47.450;19.124;2023-07-31T13:22:46;1.20;;;0.40;;
44214;SDS011;29884;47.450;19.124;2023-07-31T13:25:11;1.30;;;0.40;;
44214;SDS011;29884;47.450;19.124;2023-07-31T13:27:37;2.58;;;0.50;;
44214;SDS011;29884;47.450;19.124;2023-07-31T13:30:03;1.38;;;0.40;;
44214;SDS011;29884;47.450;19.124;2023-07-31T13:32:29;3.10;;;0.50;;
44214;SDS011;29884;47.450;19.124;2023-07-31T13:34:55;1.30;;;0.40;;
44214;SDS011;29884;47.450;19.124;2023-07-31T13:37:20;2.97;;;0.40;;
44214;SDS011;29884;47.450;19.124;2023-07-31T13:39:46;1.90;;;0.60;;
44214;SDS011;29884;47.450;19.124;2023-07-31T13:42:12;2.47;;;0.40;;
44214;SDS011;29884;47.450;19.124;2023-07-31T13:44:38;1.05;;;0.40;;
44214;SDS011;29884;47.450;19.124;2023-07-31T13:47:05;3.72;;;0.50;;
44214;SDS011;29884;47.450;19.124;2023-07-31T13:49:31;2.60;;;0.50;;
44214;SDS011;29884;47.450;19.124;2023-07-31T13:51:58;6.07;;;0.70;;
44214;SDS011;29884;47.450;19.124;2023-07-31T13:54:24;5.20;;;0.50;;
44214;SDS011;29884;47.450;19.124;2023-07-31T13:56:50;1.63;;;0.45;;
44214;SDS011;29884;47.450;19.124;2023-07-31T13:59:16;2.00;;;0.50;;
44214;SDS011;29884;47.450;19.124;2023-07-31T14:01:43;1.95;;;0.50;;
44214;SDS011;29884;47.450;19.124;2023-07-31T14:04:09;1.80;;;0.50;;
44214;SDS011;29884;47.450;19.124;2023-07-31T14:06:34;4.05;;;0.50;;
44214;SDS011;29884;47.450;19.124;2023-07-31T14:09:00;3.55;;;0.50;;
44214;SDS011;29884;47.450;19.124;2023-07-31T14:11:26;4.95;;;0.47;;
44214;SDS011;29884;47.450;19.124;2023-07-31T14:13:52;4.32;;;1.20;;
44214;SDS011;29884;47.450;19.124;2023-07-31T14:16:18;5.38;;;0.80;;
44214;SDS011;29884;47.450;19.124;2023-07-31T14:18:44;3.38;;;0.60;;
44214;SDS011;29884;47.450;19.124;2023-07-31T14:21:11;3.20;;;0.60;;
44214;SDS011;29884;47.450;19.124;2023-07-31T14:23:37;1.50;;;0.50;;
44214;SDS011;29884;47.450;19.124;2023-07-31T14:26:02;2.83;;;0.70;;
44214;SDS011;29884;47.450;19.124;2023-07-31T14:28:28;5.80;;;0.80;;
44214;SDS011;29884;47.450;19.124;2023-07-31T14:30:54;1.52;;;0.68;;
44214;SDS011;29884;47.450;19.124;2023-07-31T14:33:20;1.90;;;0.80;;
44214;SDS011;29884;47.450;19.124;2023-07-31T14:35:45;2.58;;;0.43;;
44214;SDS011;29884;47.450;19.124;2023-07-31T14:38:11;2.20;;;0.50;;
44214;SDS011;29884;47.450;19.124;2023-07-31T14:40:37;3.97;;;0.60;;
44214;SDS011;29884;47.450;19.124;2023-07-31T14:43:03;3.55;;;0.40;;
44214;SDS011;29884;47.450;19.124;2023-07-31T14:45:29;1.38;;;0.45;;
44214;SDS011;29884;47.450;19.124;2023-07-31T14:47:55;4.30;;;0.50;;
44214;SDS011;29884;47.450;19.124;2023-07-31T14:50:21;1.38;;;0.50;;
44214;SDS011;29884;47.450;19.124;2023-07-31T14:52:48;1.40;;;0.40;;